sensor_id;sensor_type;location;lat;lon;timestamp;pressure;altitude;pressure_sealevel;temperature;humidity
57847;BME280;43675;50.030;21.952;2022-09-13T00:01:20;98533.97;;;12.79;74.20
57847;BME280;43675;50.030;21.952;2022-09-13T00:03:46;98528.89;;;12.80;74.18
57847;BME280;43675;50.030;21.952;2022-09-13T00:06:14;98534.27;;;12.80;74.12
57847;BME280;43675;50.030;21.952;2022-09-13T00:08:40;98524.03;;;12.80;74.15
57847;BME280;43675;50.030;21.952;2022-09-13T00:11:11;98526.42;;;12.79;74.15
57847;BME280;43675;50.030;21.952;2022-09-13T00:13:34;98521.64;;;12.81;74.14
57847;BME280;43675;50.030;21.952;2022-09-13T00:16:00;98520.51;;;12.79;74.14
57847;BME280;43675;50.030;21.952;2022-09-13T00:18:26;98520.51;;;12.79;74.11
57847;BME280;43675;50.030;21.952;2022-09-13T00:20:51;98526.11;;;12.78;74.17
57847;BME280;43675;50.030;21.952;2022-09-13T00:23:17;98525.07;;;12.79;74.16
57847;BME280;43675;50.030;21.952;2022-09-13T00:25:42;98525.67;;;12.81;74.14
57847;BME280;43675;50.030;21.952;2022-09-13T00:28:08;98517.08;;;12.82;74.13
57847;BME280;43675;50.030;21.952;2022-09-13T00:30:34;98521.64;;;12.81;74.16
57847;BME280;43675;50.030;21.952;2022-09-13T00:33:06;98517.87;;;12.82;74.09
57847;BME280;43675;50.030;21.952;2022-09-13T00:35:31;98527.30;;;12.82;74.08
57847;BME280;43675;50.030;21.952;2022-09-13T00:38:03;98514.25;;;12.76;74.05
57847;BME280;43675;50.030;21.952;2022-09-13T00:40:29;98522.37;;;12.79;74.08
57847;BME280;43675;50.030;21.952;2022-09-13T00:42:55;98522.68;;;12.80;74.03
57847;BME280;43675;50.030;21.952;2022-09-13T00:45:27;98525.59;;;12.78;74.04
57847;BME280;43675;50.030;21.952;2022-09-13T00:48:00;98523.42;;;12.78;74.08
57847;BME280;43675;50.030;21.952;2022-09-13T00:50:37;98533.62;;;12.76;74.15
57847;BME280;43675;50.030;21.952;2022-09-13T00:53:12;98528.19;;;12.73;74.24
57847;BME280;43675;50.030;21.952;2022-09-13T00:55:45;98521.67;;;12.72;74.28
57847;BME280;43675;50.030;21.952;2022-09-13T00:58:14;98518.76;;;12.73;74.28
57847;BME280;43675;50.030;21.952;2022-09-13T01:00:40;98522.84;;;12.76;74.27
57847;BME280;43675;50.030;21.952;2022-09-13T01:03:08;98524.72;;;12.75;74.28
57847;BME280;43675;50.030;21.952;2022-09-13T01:05:39;98518.59;;;12.77;74.26
57847;BME280;43675;50.030;21.952;2022-09-13T01:08:05;98528.28;;;12.78;74.27
57847;BME280;43675;50.030;21.952;2022-09-13T01:10:33;98529.72;;;12.81;74.30
57847;BME280;43675;50.030;21.952;2022-09-13T01:13:05;98524.59;;;12.82;74.30
57847;BME280;43675;50.030;21.952;2022-09-13T01:15:27;98526.03;;;12.85;74.30
57847;BME280;43675;50.030;21.952;2022-09-13T01:17:53;98524.43;;;12.86;74.26
57847;BME280;43675;50.030;21.952;2022-09-13T01:20:34;98524.68;;;12.85;74.26
57847;BME280;43675;50.030;21.952;2022-09-13T01:31:18;98527.12;;;12.86;74.46
57847;BME280;43675;50.030;21.952;2022-09-13T01:39:16;98534.46;;;12.88;74.54
57847;BME280;43675;50.030;21.952;2022-09-13T01:42:06;98539.08;;;12.90;74.55
57847;BME280;43675;50.030;21.952;2022-09-13T01:44:52;98539.98;;;12.93;74.56
57847;BME280;43675;50.030;21.952;2022-09-13T01:55:11;98528.13;;;12.94;74.82
57847;BME280;43675;50.030;21.952;2022-09-13T01:57:40;98526.78;;;12.94;74.83
57847;BME280;43675;50.030;21.952;2022-09-13T02:00:08;98526.78;;;12.94;74.89
57847;BME280;43675;50.030;21.952;2022-09-13T02:02:52;98514.96;;;12.95;74.89
57847;BME280;43675;50.030;21.952;2022-09-13T02:05:43;98514.22;;;12.97;74.88
57847;BME280;43675;50.030;21.952;2022-09-13T02:08:18;98517.09;;;12.93;74.92
57847;BME280;43675;50.030;21.952;2022-09-13T02:10:47;98514.31;;;12.91;75.04
57847;BME280;43675;50.030;21.952;2022-09-13T02:13:17;98500.57;;;12.90;75.05
57847;BME280;43675;50.030;21.952;2022-09-13T02:15:48;98497.11;;;12.92;75.04
57847;BME280;43675;50.030;21.952;2022-09-13T02:18:24;98497.92;;;12.92;75.04
57847;BME280;43675;50.030;21.952;2022-09-13T02:20:57;98501.14;;;12.92;75.05
57847;BME280;43675;50.030;21.952;2022-09-13T02:23:31;98499.50;;;12.91;75.05
57847;BME280;43675;50.030;21.952;2022-09-13T02:25:59;98495.41;;;12.88;75.05
57847;BME280;43675;50.030;21.952;2022-09-13T02:28:31;98492.06;;;12.84;74.94
57847;BME280;43675;50.030;21.952;2022-09-13T02:30:57;98488.14;;;12.77;74.79
57847;BME280;43675;50.030;21.952;2022-09-13T02:33:28;98491.39;;;12.67;74.74
57847;BME280;43675;50.030;21.952;2022-09-13T02:36:06;98486.82;;;12.56;74.79
57847;BME280;43675;50.030;21.952;2022-09-13T02:38:42;98488.97;;;12.45;74.92
57847;BME280;43675;50.030;21.952;2022-09-13T02:41:14;98488.70;;;12.35;75.01
57847;BME280;43675;50.030;21.952;2022-09-13T02:43:43;98494.13;;;12.26;75.13
57847;BME280;43675;50.030;21.952;2022-09-13T02:46:23;98487.42;;;12.17;75.28
57847;BME280;43675;50.030;21.952;2022-09-13T02:48:56;98491.04;;;12.11;75.45
57847;BME280;43675;50.030;21.952;2022-09-13T02:51:29;98487.59;;;12.04;75.64
57847;BME280;43675;50.030;21.952;2022-09-13T02:56:58;98495.30;;;12.00;75.94
57847;BME280;43675;50.030;21.952;2022-09-13T02:59:38;98488.47;;;11.95;76.14
57847;BME280;43675;50.030;21.952;2022-09-13T03:02:13;98485.63;;;11.90;76.30
57847;BME280;43675;50.030;21.952;2022-09-13T03:04:40;98485.33;;;11.89;76.36
57847;BME280;43675;50.030;21.952;2022-09-13T03:07:11;98482.42;;;11.91;76.35
57847;BME280;43675;50.030;21.952;2022-09-13T03:09:45;98482.42;;;11.91;76.37
57847;BME280;43675;50.030;21.952;2022-09-13T03:14:51;98488.53;;;11.89;76.47
57847;BME280;43675;50.030;21.952;2022-09-13T03:23:18;98498.05;;;11.82;76.70
57847;BME280;43675;50.030;21.952;2022-09-13T03:31:48;98483.32;;;11.66;76.72
57847;BME280;43675;50.030;21.952;2022-09-13T03:34:16;98488.27;;;11.60;76.68
57847;BME280;43675;50.030;21.952;2022-09-13T03:36:56;98483.47;;;11.53;76.58
57847;BME280;43675;50.030;21.952;2022-09-13T03:39:35;98484.53;;;11.43;76.46
57847;BME280;43675;50.030;21.952;2022-09-13T03:42:00;98476.34;;;11.29;76.39
57847;BME280;43675;50.030;21.952;2022-09-13T03:44:28;98481.02;;;11.15;76.41
57847;BME280;43675;50.030;21.952;2022-09-13T03:46:57;98487.95;;;11.05;76.41
57847;BME280;43675;50.030;21.952;2022-09-13T03:49:26;98488.89;;;10.92;76.50
57847;BME280;43675;50.030;21.952;2022-09-13T03:51:53;98483.73;;;10.81;76.72
57847;BME280;43675;50.030;21.952;2022-09-13T03:54:23;98489.59;;;10.72;76.84
57847;BME280;43675;50.030;21.952;2022-09-13T03:57:15;98486.08;;;10.62;77.03
57847;BME280;43675;50.030;21.952;2022-09-13T03:59:41;98482.91;;;10.56;77.17
57847;BME280;43675;50.030;21.952;2022-09-13T04:02:22;98478.77;;;10.44;77.36
57847;BME280;43675;50.030;21.952;2022-09-13T04:04:48;98485.81;;;10.39;77.49
57847;BME280;43675;50.030;21.952;2022-09-13T04:07:16;98485.18;;;10.28;77.44
57847;BME280;43675;50.030;21.952;2022-09-13T04:09:43;98484.77;;;10.31;77.50
57847;BME280;43675;50.030;21.952;2022-09-13T04:12:09;98489.31;;;10.30;77.61
57847;BME280;43675;50.030;21.952;2022-09-13T04:14:34;98490.41;;;10.32;77.78
57847;BME280;43675;50.030;21.952;2022-09-13T04:17:00;98491.23;;;10.32;77.89
57847;BME280;43675;50.030;21.952;2022-09-13T04:19:26;98490.73;;;10.33;77.95
57847;BME280;43675;50.030;21.952;2022-09-13T04:21:53;98478.66;;;10.33;77.95
57847;BME280;43675;50.030;21.952;2022-09-13T04:24:28;98474.05;;;10.31;77.88
57847;BME280;43675;50.030;21.952;2022-09-13T04:26:54;98474.97;;;10.27;77.83
57847;BME280;43675;50.030;21.952;2022-09-13T04:29:22;98475.02;;;10.21;77.81
57847;BME280;43675;50.030;21.952;2022-09-13T04:31:49;98474.33;;;10.16;77.77
57847;BME280;43675;50.030;21.952;2022-09-13T04:34:15;98468.23;;;10.12;77.77
57847;BME280;43675;50.030;21.952;2022-09-13T04:36:41;98470.25;;;10.07;77.77
57847;BME280;43675;50.030;21.952;2022-09-13T04:39:07;98467.47;;;10.05;77.87
57847;BME280;43675;50.030;21.952;2022-09-13T04:41:33;98473.06;;;10.03;77.99
57847;BME280;43675;50.030;21.952;2022-09-13T04:43:59;98471.17;;;10.04;78.16
57847;BME280;43675;50.030;21.952;2022-09-13T04:46:25;98475.51;;;10.05;78.28
57847;BME280;43675;50.030;21.952;2022-09-13T04:48:51;98476.13;;;10.07;78.41
57847;BME280;43675;50.030;21.952;2022-09-13T04:51:17;98480.41;;;10.14;78.53
57847;BME280;43675;50.030;21.952;2022-09-13T04:53:44;98476.87;;;10.20;78.63
57847;BME280;43675;50.030;21.952;2022-09-13T04:56:10;98479.09;;;10.30;78.77
57847;BME280;43675;50.030;21.952;2022-09-13T04:58:36;98479.22;;;10.41;78.83
57847;BME280;43675;50.030;21.952;2022-09-13T05:01:04;98478.81;;;10.54;78.86
57847;BME280;43675;50.030;21.952;2022-09-13T05:03:37;98481.91;;;10.66;78.89
57847;BME280;43675;50.030;21.952;2022-09-13T05:06:04;98486.70;;;10.82;78.99
57847;BME280;43675;50.030;21.952;2022-09-13T05:08:31;98484.13;;;11.03;79.09
57847;BME280;43675;50.030;21.952;2022-09-13T05:10:57;98481.09;;;11.27;79.13
57847;BME280;43675;50.030;21.952;2022-09-13T05:13:24;98472.72;;;11.53;79.02
57847;BME280;43675;50.030;21.952;2022-09-13T05:15:58;98469.14;;;11.77;78.81
57847;BME280;43675;50.030;21.952;2022-09-13T05:18:26;98470.67;;;12.03;78.60
57847;BME280;43675;50.030;21.952;2022-09-13T05:20:55;98462.36;;;12.25;78.28
57847;BME280;43675;50.030;21.952;2022-09-13T05:23:21;98466.97;;;12.48;77.90
57847;BME280;43675;50.030;21.952;2022-09-13T05:26:03;98468.98;;;12.64;77.37
57847;BME280;43675;50.030;21.952;2022-09-13T05:28:23;98466.25;;;12.73;76.85
57847;BME280;43675;50.030;21.952;2022-09-13T05:30:59;98466.00;;;12.75;76.42
57847;BME280;43675;50.030;21.952;2022-09-13T05:33:26;98460.86;;;12.73;76.08
57847;BME280;43675;50.030;21.952;2022-09-13T05:35:53;98458.61;;;12.70;75.87
57847;BME280;43675;50.030;21.952;2022-09-13T05:38:18;98455.66;;;12.69;75.71
57847;BME280;43675;50.030;21.952;2022-09-13T05:40:45;98465.08;;;12.69;75.55
57847;BME280;43675;50.030;21.952;2022-09-13T05:43:10;98458.61;;;12.70;75.47
57847;BME280;43675;50.030;21.952;2022-09-13T05:45:36;98463.26;;;12.72;75.30
57847;BME280;43675;50.030;21.952;2022-09-13T05:48:02;98459.27;;;12.75;75.04
57847;BME280;43675;50.030;21.952;2022-09-13T05:50:37;98461.48;;;12.78;74.77
57847;BME280;43675;50.030;21.952;2022-09-13T05:53:03;98454.83;;;12.80;74.42
57847;BME280;43675;50.030;21.952;2022-09-13T05:55:29;98458.62;;;12.82;74.20
57847;BME280;43675;50.030;21.952;2022-09-13T05:58:01;98455.48;;;12.85;73.99
57847;BME280;43675;50.030;21.952;2022-09-13T06:00:27;98450.45;;;12.89;73.81
57847;BME280;43675;50.030;21.952;2022-09-13T06:02:52;98449.75;;;12.93;73.59
57847;BME280;43675;50.030;21.952;2022-09-13T06:05:18;98446.92;;;13.00;73.32
57847;BME280;43675;50.030;21.952;2022-09-13T06:07:44;98444.05;;;13.04;73.04
57847;BME280;43675;50.030;21.952;2022-09-13T06:10:10;98442.22;;;13.07;72.76
57847;BME280;43675;50.030;21.952;2022-09-13T06:12:36;98440.73;;;13.11;72.56
57847;BME280;43675;50.030;21.952;2022-09-13T06:15:09;98444.06;;;13.15;72.24
57847;BME280;43675;50.030;21.952;2022-09-13T06:17:34;98441.19;;;13.19;72.11
57847;BME280;43675;50.030;21.952;2022-09-13T06:20:00;98441.84;;;13.24;71.77
57847;BME280;43675;50.030;21.952;2022-09-13T06:22:26;98444.62;;;13.29;71.58
57847;BME280;43675;50.030;21.952;2022-09-13T06:24:51;98438.25;;;13.33;71.13
57847;BME280;43675;50.030;21.952;2022-09-13T06:27:17;98440.20;;;13.37;70.97
57847;BME280;43675;50.030;21.952;2022-09-13T06:29:42;98445.71;;;13.42;71.01
57847;BME280;43675;50.030;21.952;2022-09-13T06:32:08;98442.64;;;13.50;70.67
57847;BME280;43675;50.030;21.952;2022-09-13T06:34:33;98439.80;;;13.57;70.68
57847;BME280;43675;50.030;21.952;2022-09-13T06:36:59;98442.65;;;13.64;70.24
57847;BME280;43675;50.030;21.952;2022-09-13T06:39:25;98441.94;;;13.69;69.92
57847;BME280;43675;50.030;21.952;2022-09-13T06:41:50;98437.63;;;13.68;69.69
57847;BME280;43675;50.030;21.952;2022-09-13T06:44:18;98440.59;;;13.69;69.60
57847;BME280;43675;50.030;21.952;2022-09-13T06:46:44;98443.16;;;13.76;69.46
57847;BME280;43675;50.030;21.952;2022-09-13T06:49:09;98438.44;;;13.83;69.56
57847;BME280;43675;50.030;21.952;2022-09-13T06:51:41;98441.84;;;13.92;69.26
57847;BME280;43675;50.030;21.952;2022-09-13T06:54:07;98442.58;;;14.02;68.82
57847;BME280;43675;50.030;21.952;2022-09-13T06:56:34;98453.73;;;14.08;68.52
57847;BME280;43675;50.030;21.952;2022-09-13T06:59:05;98451.66;;;14.12;68.29
57847;BME280;43675;50.030;21.952;2022-09-13T07:01:40;98454.76;;;14.18;68.02
57847;BME280;43675;50.030;21.952;2022-09-13T07:04:08;98456.73;;;14.23;67.97
57847;BME280;43675;50.030;21.952;2022-09-13T07:06:34;98451.92;;;14.28;67.91
57847;BME280;43675;50.030;21.952;2022-09-13T07:09:02;98454.72;;;14.33;67.68
57847;BME280;43675;50.030;21.952;2022-09-13T07:11:30;98456.50;;;14.39;67.53
57847;BME280;43675;50.030;21.952;2022-09-13T07:13:57;98452.08;;;14.49;67.59
57847;BME280;43675;50.030;21.952;2022-09-13T07:16:37;98458.08;;;14.71;67.35
57847;BME280;43675;50.030;21.952;2022-09-13T07:19:05;98458.08;;;14.71;67.35
57847;BME280;43675;50.030;21.952;2022-09-13T07:21:32;98461.19;;;14.79;66.92
57847;BME280;43675;50.030;21.952;2022-09-13T07:23:58;98461.59;;;14.88;66.68
57847;BME280;43675;50.030;21.952;2022-09-13T07:26:25;98450.61;;;14.94;66.33
57847;BME280;43675;50.030;21.952;2022-09-13T07:28:55;98455.04;;;15.00;66.22
57847;BME280;43675;50.030;21.952;2022-09-13T07:31:24;98455.44;;;15.09;66.23
57847;BME280;43675;50.030;21.952;2022-09-13T07:33:55;98446.93;;;15.20;66.02
57847;BME280;43675;50.030;21.952;2022-09-13T07:36:22;98451.98;;;15.33;65.82
57847;BME280;43675;50.030;21.952;2022-09-13T07:38:48;98448.03;;;15.40;65.44
57847;BME280;43675;50.030;21.952;2022-09-13T07:41:16;98447.36;;;15.50;65.40
57847;BME280;43675;50.030;21.952;2022-09-13T07:43:43;98449.11;;;15.61;65.30
57847;BME280;43675;50.030;21.952;2022-09-13T07:46:11;98451.16;;;15.73;65.43
57847;BME280;43675;50.030;21.952;2022-09-13T07:48:39;98439.66;;;15.85;65.35
57847;BME280;43675;50.030;21.952;2022-09-13T07:53:42;98447.47;;;16.06;64.95
57847;BME280;43675;50.030;21.952;2022-09-13T07:56:11;98450.01;;;16.15;64.77
57847;BME280;43675;50.030;21.952;2022-09-13T07:58:38;98450.09;;;16.25;64.63
57847;BME280;43675;50.030;21.952;2022-09-13T08:01:07;98453.16;;;16.34;63.81
57847;BME280;43675;50.030;21.952;2022-09-13T08:03:40;98455.36;;;16.39;63.02
57847;BME280;43675;50.030;21.952;2022-09-13T08:06:07;98460.55;;;16.43;62.64
57847;BME280;43675;50.030;21.952;2022-09-13T08:08:33;98456.25;;;16.47;62.52
57847;BME280;43675;50.030;21.952;2022-09-13T08:11:00;98456.84;;;16.54;61.98
57847;BME280;43675;50.030;21.952;2022-09-13T08:13:33;98458.28;;;16.60;61.33
57847;BME280;43675;50.030;21.952;2022-09-13T08:16:05;98453.45;;;16.67;60.90
57847;BME280;43675;50.030;21.952;2022-09-13T08:18:32;98455.98;;;16.76;60.69
57847;BME280;43675;50.030;21.952;2022-09-13T08:21:05;98456.32;;;16.84;60.17
57847;BME280;43675;50.030;21.952;2022-09-13T08:23:37;98450.95;;;16.92;60.11
57847;BME280;43675;50.030;21.952;2022-09-13T08:26:03;98448.04;;;17.01;59.76
57847;BME280;43675;50.030;21.952;2022-09-13T08:28:29;98453.27;;;17.13;58.92
57847;BME280;43675;50.030;21.952;2022-09-13T08:30:54;98446.53;;;17.20;57.76
57847;BME280;43675;50.030;21.952;2022-09-13T08:33:20;98439.50;;;17.24;57.67
57847;BME280;43675;50.030;21.952;2022-09-13T08:35:52;98439.29;;;17.36;57.55
57847;BME280;43675;50.030;21.952;2022-09-13T08:38:18;98450.46;;;17.47;56.49
57847;BME280;43675;50.030;21.952;2022-09-13T08:40:50;98439.86;;;17.45;56.14
57847;BME280;43675;50.030;21.952;2022-09-13T08:46:26;98440.40;;;17.45;56.06
57847;BME280;43675;50.030;21.952;2022-09-13T08:48:55;98436.33;;;17.45;56.58
57847;BME280;43675;50.030;21.952;2022-09-13T08:51:31;98441.53;;;17.54;55.99
57847;BME280;43675;50.030;21.952;2022-09-13T08:53:58;98437.78;;;17.58;54.88
57847;BME280;43675;50.030;21.952;2022-09-13T08:59:37;98429.97;;;17.74;54.46
57847;BME280;43675;50.030;21.952;2022-09-13T09:07:56;98423.81;;;17.99;53.57
57847;BME280;43675;50.030;21.952;2022-09-13T09:10:23;98414.59;;;18.12;53.19
57847;BME280;43675;50.030;21.952;2022-09-13T09:12:58;98418.97;;;18.26;52.68
57847;BME280;43675;50.030;21.952;2022-09-13T09:15:50;98424.41;;;18.41;52.17
57847;BME280;43675;50.030;21.952;2022-09-13T09:18:01;98422.82;;;18.58;51.10
57847;BME280;43675;50.030;21.952;2022-09-13T09:25:55;98418.14;;;18.94;49.13
57847;BME280;43675;50.030;21.952;2022-09-13T09:28:20;98404.03;;;18.89;49.55
57847;BME280;43675;50.030;21.952;2022-09-13T09:31:01;98405.94;;;18.88;49.56
57847;BME280;43675;50.030;21.952;2022-09-13T09:36:36;98410.03;;;18.68;48.98
57847;BME280;43675;50.030;21.952;2022-09-13T09:38:58;98411.67;;;18.69;48.89
57847;BME280;43675;50.030;21.952;2022-09-13T09:41:33;98406.48;;;18.80;49.21
57847;BME280;43675;50.030;21.952;2022-09-13T09:44:20;98406.98;;;19.13;48.98
57847;BME280;43675;50.030;21.952;2022-09-13T09:49:36;98395.53;;;19.85;47.68
57847;BME280;43675;50.030;21.952;2022-09-13T09:52:09;98379.98;;;19.88;46.96
57847;BME280;43675;50.030;21.952;2022-09-13T09:54:37;98389.70;;;20.07;46.83
57847;BME280;43675;50.030;21.952;2022-09-13T09:57:03;98381.77;;;20.10;46.74
57847;BME280;43675;50.030;21.952;2022-09-13T09:59:31;98389.64;;;20.14;46.72
57847;BME280;43675;50.030;21.952;2022-09-13T10:02:01;98388.53;;;20.18;46.56
57847;BME280;43675;50.030;21.952;2022-09-13T10:04:28;98383.02;;;20.23;46.76
57847;BME280;43675;50.030;21.952;2022-09-13T10:07:10;98378.63;;;20.32;46.52
57847;BME280;43675;50.030;21.952;2022-09-13T10:09:36;98378.84;;;20.41;46.32
57847;BME280;43675;50.030;21.952;2022-09-13T10:12:02;98385.66;;;20.41;45.88
57847;BME280;43675;50.030;21.952;2022-09-13T10:14:41;98380.44;;;20.44;45.80
57847;BME280;43675;50.030;21.952;2022-09-13T10:19:57;98370.73;;;20.91;45.18
57847;BME280;43675;50.030;21.952;2022-09-13T10:22:31;98367.38;;;21.25;44.48
57847;BME280;43675;50.030;21.952;2022-09-13T10:25:14;98359.16;;;21.51;43.41
57847;BME280;43675;50.030;21.952;2022-09-13T10:27:48;98360.20;;;21.55;42.92
57847;BME280;43675;50.030;21.952;2022-09-13T10:32:56;98360.33;;;21.21;42.87
57847;BME280;43675;50.030;21.952;2022-09-13T10:35:23;98368.83;;;21.17;43.38
57847;BME280;43675;50.030;21.952;2022-09-13T10:37:50;98369.44;;;21.09;43.02
57847;BME280;43675;50.030;21.952;2022-09-13T10:40:31;98372.02;;;20.98;42.53
57847;BME280;43675;50.030;21.952;2022-09-13T10:42:59;98370.37;;;20.73;42.73
57847;BME280;43675;50.030;21.952;2022-09-13T10:45:28;98366.72;;;20.54;43.22
57847;BME280;43675;50.030;21.952;2022-09-13T10:47:58;98363.13;;;20.59;43.62
57847;BME280;43675;50.030;21.952;2022-09-13T10:50:28;98356.16;;;20.76;43.44
57847;BME280;43675;50.030;21.952;2022-09-13T10:52:58;98360.56;;;20.99;43.02
57847;BME280;43675;50.030;21.952;2022-09-13T11:00:37;98358.59;;;21.31;42.25
57847;BME280;43675;50.030;21.952;2022-09-13T11:03:37;98358.66;;;21.47;42.15
57847;BME280;43675;50.030;21.952;2022-09-13T11:09:13;98353.54;;;21.83;41.53
57847;BME280;43675;50.030;21.952;2022-09-13T11:17:32;98353.77;;;21.65;41.32
57847;BME280;43675;50.030;21.952;2022-09-13T11:23:07;98348.34;;;21.44;41.59
57847;BME280;43675;50.030;21.952;2022-09-13T11:31:14;98330.45;;;21.94;41.33
57847;BME280;43675;50.030;21.952;2022-09-13T11:36:50;98332.78;;;22.03;40.88
57847;BME280;43675;50.030;21.952;2022-09-13T11:39:27;98334.16;;;22.03;40.85
57847;BME280;43675;50.030;21.952;2022-09-13T11:42:01;98337.94;;;22.04;40.99
57847;BME280;43675;50.030;21.952;2022-09-13T11:47:56;98324.48;;;22.08;40.64
57847;BME280;43675;50.030;21.952;2022-09-13T11:50:22;98323.09;;;21.92;40.99
57847;BME280;43675;50.030;21.952;2022-09-13T11:53:23;98313.38;;;21.83;41.50
57847;BME280;43675;50.030;21.952;2022-09-13T11:56:06;98312.14;;;21.94;41.57
57847;BME280;43675;50.030;21.952;2022-09-13T12:01:15;98308.52;;;22.31;41.46
57847;BME280;43675;50.030;21.952;2022-09-13T12:03:58;98305.31;;;22.43;41.12
57847;BME280;43675;50.030;21.952;2022-09-13T12:06:36;98306.31;;;22.49;41.23
57847;BME280;43675;50.030;21.952;2022-09-13T12:09:18;98298.52;;;22.56;40.97
57847;BME280;43675;50.030;21.952;2022-09-13T12:11:52;98296.80;;;22.60;41.20
57847;BME280;43675;50.030;21.952;2022-09-13T12:14:28;98298.18;;;22.77;41.22
57847;BME280;43675;50.030;21.952;2022-09-13T12:17:02;98292.90;;;22.94;40.78
57847;BME280;43675;50.030;21.952;2022-09-13T12:19:46;98291.59;;;22.91;41.06
57847;BME280;43675;50.030;21.952;2022-09-13T12:22:14;98289.88;;;22.95;40.80
57847;BME280;43675;50.030;21.952;2022-09-13T12:24:46;98291.86;;;22.92;40.86
57847;BME280;43675;50.030;21.952;2022-09-13T12:30:20;98292.82;;;23.13;40.53
57847;BME280;43675;50.030;21.952;2022-09-13T12:32:47;98283.14;;;23.04;40.13
57847;BME280;43675;50.030;21.952;2022-09-13T12:37:54;98282.81;;;22.78;40.10
57847;BME280;43675;50.030;21.952;2022-09-13T12:46:16;98261.54;;;22.75;40.36
57847;BME280;43675;50.030;21.952;2022-09-13T12:49:08;98263.68;;;22.92;40.20
57847;BME280;43675;50.030;21.952;2022-09-13T12:51:36;98259.88;;;23.04;40.03
57847;BME280;43675;50.030;21.952;2022-09-13T13:00:09;98262.06;;;23.29;38.96
57847;BME280;43675;50.030;21.952;2022-09-13T13:02:44;98250.72;;;23.22;39.13
57847;BME280;43675;50.030;21.952;2022-09-13T13:05:22;98253.33;;;23.16;39.12
57847;BME280;43675;50.030;21.952;2022-09-13T13:07:53;98250.59;;;23.16;39.31
57847;BME280;43675;50.030;21.952;2022-09-13T13:10:34;98244.47;;;23.08;39.13
57847;BME280;43675;50.030;21.952;2022-09-13T13:13:31;98237.39;;;22.93;39.46
57847;BME280;43675;50.030;21.952;2022-09-13T13:23:33;98237.83;;;23.36;40.10
57847;BME280;43675;50.030;21.952;2022-09-13T13:28:53;98232.20;;;23.30;40.06
57847;BME280;43675;50.030;21.952;2022-09-13T13:34:09;98230.32;;;22.90;40.32
57847;BME280;43675;50.030;21.952;2022-09-13T13:41:38;98233.91;;;22.60;40.46
57847;BME280;43675;50.030;21.952;2022-09-13T13:46:47;98232.35;;;22.71;40.51
57847;BME280;43675;50.030;21.952;2022-09-13T13:54:59;98214.36;;;23.08;40.16
57847;BME280;43675;50.030;21.952;2022-09-13T14:00:21;98200.80;;;23.39;39.99
57847;BME280;43675;50.030;21.952;2022-09-13T14:14:20;98186.02;;;23.26;39.35
57847;BME280;43675;50.030;21.952;2022-09-13T14:19:43;98170.97;;;23.62;38.77
57847;BME280;43675;50.030;21.952;2022-09-13T14:22:24;98172.21;;;23.78;38.66
57847;BME280;43675;50.030;21.952;2022-09-13T14:24:54;98172.39;;;23.82;38.25
57847;BME280;43675;50.030;21.952;2022-09-13T14:27:26;98180.25;;;23.75;38.23
57847;BME280;43675;50.030;21.952;2022-09-13T14:29:58;98176.89;;;23.67;38.11
57847;BME280;43675;50.030;21.952;2022-09-13T14:32:27;98174.00;;;23.49;38.40
57847;BME280;43675;50.030;21.952;2022-09-13T14:34:59;98177.70;;;23.31;38.45
57847;BME280;43675;50.030;21.952;2022-09-13T14:37:30;98178.78;;;23.08;38.79
57847;BME280;43675;50.030;21.952;2022-09-13T14:42:43;98182.34;;;22.68;39.34
57847;BME280;43675;50.030;21.952;2022-09-13T14:45:17;98174.59;;;22.45;39.36
57847;BME280;43675;50.030;21.952;2022-09-13T14:50:23;98178.81;;;22.10;40.59
57847;BME280;43675;50.030;21.952;2022-09-13T14:52:52;98175.55;;;22.08;41.09
57847;BME280;43675;50.030;21.952;2022-09-13T14:55:37;98182.70;;;22.06;41.43
57847;BME280;43675;50.030;21.952;2022-09-13T14:58:06;98178.08;;;22.04;41.60
57847;BME280;43675;50.030;21.952;2022-09-13T15:00:48;98174.13;;;21.97;41.86
57847;BME280;43675;50.030;21.952;2022-09-13T15:03:15;98163.84;;;21.89;41.92
57847;BME280;43675;50.030;21.952;2022-09-13T15:05:55;98151.53;;;21.75;42.19
57847;BME280;43675;50.030;21.952;2022-09-13T15:13:43;98169.43;;;21.33;43.02
57847;BME280;43675;50.030;21.952;2022-09-13T15:16:30;98168.20;;;21.22;43.45
57847;BME280;43675;50.030;21.952;2022-09-13T15:19:16;98163.13;;;21.16;43.56
57847;BME280;43675;50.030;21.952;2022-09-13T15:21:43;98161.30;;;21.06;44.02
57847;BME280;43675;50.030;21.952;2022-09-13T15:24:28;98155.73;;;20.95;44.19
57847;BME280;43675;50.030;21.952;2022-09-13T15:27:13;98147.93;;;20.89;44.49
57847;BME280;43675;50.030;21.952;2022-09-13T15:29:34;98148.05;;;20.78;44.85
57847;BME280;43675;50.030;21.952;2022-09-13T15:32:01;98143.29;;;20.68;45.16
57847;BME280;43675;50.030;21.952;2022-09-13T15:34:27;98150.43;;;20.64;45.40
57847;BME280;43675;50.030;21.952;2022-09-13T15:37:08;98151.03;;;20.58;45.82
57847;BME280;43675;50.030;21.952;2022-09-13T15:39:48;98157.94;;;20.53;45.88
57847;BME280;43675;50.030;21.952;2022-09-13T15:42:15;98147.95;;;20.44;46.03
57847;BME280;43675;50.030;21.952;2022-09-13T15:44:42;98148.31;;;20.37;46.33
57847;BME280;43675;50.030;21.952;2022-09-13T15:47:10;98147.77;;;20.38;46.35
57847;BME280;43675;50.030;21.952;2022-09-13T15:49:38;98151.54;;;20.39;46.48
57847;BME280;43675;50.030;21.952;2022-09-13T15:52:04;98143.91;;;20.39;46.68
57847;BME280;43675;50.030;21.952;2022-09-13T15:54:36;98150.45;;;20.40;46.83
57847;BME280;43675;50.030;21.952;2022-09-13T15:57:08;98155.39;;;20.38;46.84
57847;BME280;43675;50.030;21.952;2022-09-13T15:59:34;98138.60;;;20.26;46.77
57847;BME280;43675;50.030;21.952;2022-09-13T16:02:22;98138.60;;;20.26;46.77